sensor_id;sensor_type;location;lat;lon;timestamp;P1;durP1;ratioP1;P2;durP2;ratioP2
34072;SDS011;20346;52.702;16.886;2023-06-19T00:02:31;10.50;;;9.80;;
34072;SDS011;20346;52.702;16.886;2023-06-19T00:05:57;10.10;;;9.40;;
34072;SDS011;20346;52.702;16.886;2023-06-19T00:08:48;9.60;;;8.70;;
34072;SDS011;20346;52.702;16.886;2023-06-19T00:12:05;9.40;;;8.70;;
34072;SDS011;20346;52.702;16.886;2023-06-19T00:15:15;9.60;;;8.90;;
34072;SDS011;20346;52.702;16.886;2023-06-19T00:18:57;9.50;;;8.80;;
34072;SDS011;20346;52.702;16.886;2023-06-19T00:22:43;12.00;;;11.00;;
34072;SDS011;20346;52.702;16.886;2023-06-19T00:26:13;11.70;;;10.70;;
34072;SDS011;20346;52.702;16.886;2023-06-19T00:29:24;13.30;;;11.60;;
34072;SDS011;20346;52.702;16.886;2023-06-19T00:32:58;12.00;;;11.10;;
34072;SDS011;20346;52.702;16.886;2023-06-19T00:36:12;13.50;;;10.60;;
34072;SDS011;20346;52.702;16.886;2023-06-19T00:39:54;11.70;;;10.90;;
34072;SDS011;20346;52.702;16.886;2023-06-19T00:43:41;10.10;;;9.20;;
34072;SDS011;20346;52.702;16.886;2023-06-19T00:47:03;11.20;;;9.30;;
34072;SDS011;20346;52.702;16.886;2023-06-19T00:50:30;9.50;;;8.80;;
34072;SDS011;20346;52.702;16.886;2023-06-19T00:53:56;10.00;;;9.30;;
34072;SDS011;20346;52.702;16.886;2023-06-19T00:57:03;9.60;;;8.90;;
34072;SDS011;20346;52.702;16.886;2023-06-19T01:00:30;9.50;;;8.70;;
34072;SDS011;20346;52.702;16.886;2023-06-19T01:03:45;9.60;;;8.80;;
34072;SDS011;20346;52.702;16.886;2023-06-19T01:07:09;9.50;;;8.80;;
34072;SDS011;20346;52.702;16.886;2023-06-19T01:10:45;9.60;;;8.80;;
34072;SDS011;20346;52.702;16.886;2023-06-19T01:13:50;12.00;;;10.90;;
34072;SDS011;20346;52.702;16.886;2023-06-19T01:17:19;8.60;;;7.90;;
34072;SDS011;20346;52.702;16.886;2023-06-19T01:20:16;9.30;;;8.40;;
34072;SDS011;20346;52.702;16.886;2023-06-19T01:23:44;9.40;;;8.70;;
34072;SDS011;20346;52.702;16.886;2023-06-19T01:26:52;10.80;;;9.90;;
34072;SDS011;20346;52.702;16.886;2023-06-19T01:29:42;10.20;;;9.30;;
34072;SDS011;20346;52.702;16.886;2023-06-19T01:33:03;10.90;;;9.90;;
34072;SDS011;20346;52.702;16.886;2023-06-19T01:36:25;9.10;;;8.30;;
34072;SDS011;20346;52.702;16.886;2023-06-19T01:39:58;9.60;;;8.20;;
34072;SDS011;20346;52.702;16.886;2023-06-19T01:43:26;8.80;;;8.00;;
34072;SDS011;20346;52.702;16.886;2023-06-19T01:46:38;9.40;;;8.60;;
34072;SDS011;20346;52.702;16.886;2023-06-19T01:49:26;8.90;;;8.00;;
34072;SDS011;20346;52.702;16.886;2023-06-19T01:52:34;9.70;;;8.40;;
34072;SDS011;20346;52.702;16.886;2023-06-19T01:55:41;9.60;;;8.70;;
34072;SDS011;20346;52.702;16.886;2023-06-19T01:58:35;9.60;;;8.80;;
34072;SDS011;20346;52.702;16.886;2023-06-19T02:02:03;9.40;;;8.70;;
34072;SDS011;20346;52.702;16.886;2023-06-19T02:05:11;13.40;;;9.30;;
34072;SDS011;20346;52.702;16.886;2023-06-19T02:08:38;8.90;;;8.20;;
34072;SDS011;20346;52.702;16.886;2023-06-19T02:12:25;7.90;;;7.20;;
34072;SDS011;20346;52.702;16.886;2023-06-19T02:16:11;8.70;;;8.00;;
34072;SDS011;20346;52.702;16.886;2023-06-19T02:19:10;9.70;;;8.80;;
34072;SDS011;20346;52.702;16.886;2023-06-19T02:21:58;10.50;;;9.60;;
34072;SDS011;20346;52.702;16.886;2023-06-19T02:24:49;11.40;;;9.90;;
34072;SDS011;20346;52.702;16.886;2023-06-19T02:28:19;9.00;;;8.20;;
34072;SDS011;20346;52.702;16.886;2023-06-19T02:31:14;9.90;;;8.90;;
34072;SDS011;20346;52.702;16.886;2023-06-19T02:34:21;10.50;;;9.70;;
34072;SDS011;20346;52.702;16.886;2023-06-19T02:38:08;9.80;;;9.00;;
34072;SDS011;20346;52.702;16.886;2023-06-19T02:41:54;8.40;;;7.70;;
34072;SDS011;20346;52.702;16.886;2023-06-19T02:45:40;9.00;;;8.40;;
34072;SDS011;20346;52.702;16.886;2023-06-19T02:49:26;9.80;;;8.70;;
34072;SDS011;20346;52.702;16.886;2023-06-19T02:53:13;10.60;;;9.40;;
34072;SDS011;20346;52.702;16.886;2023-06-19T02:56:05;12.20;;;9.80;;
34072;SDS011;20346;52.702;16.886;2023-06-19T02:59:00;10.80;;;10.00;;
34072;SDS011;20346;52.702;16.886;2023-06-19T03:01:47;10.00;;;9.10;;
34072;SDS011;20346;52.702;16.886;2023-06-19T03:05:33;7.90;;;7.30;;
34072;SDS011;20346;52.702;16.886;2023-06-19T03:08:46;8.90;;;8.10;;
34072;SDS011;20346;52.702;16.886;2023-06-19T03:11:59;8.70;;;8.10;;
34072;SDS011;20346;52.702;16.886;2023-06-19T03:15:06;8.00;;;7.40;;
34072;SDS011;20346;52.702;16.886;2023-06-19T03:18:23;7.80;;;7.10;;
34072;SDS011;20346;52.702;16.886;2023-06-19T03:21:26;8.30;;;7.60;;
34072;SDS011;20346;52.702;16.886;2023-06-19T03:24:13;7.30;;;6.60;;
34072;SDS011;20346;52.702;16.886;2023-06-19T03:27:04;8.40;;;7.30;;
34072;SDS011;20346;52.702;16.886;2023-06-19T03:30:12;8.90;;;8.10;;
34072;SDS011;20346;52.702;16.886;2023-06-19T03:33:20;7.60;;;7.10;;
34072;SDS011;20346;52.702;16.886;2023-06-19T03:36:30;8.70;;;8.00;;
34072;SDS011;20346;52.702;16.886;2023-06-19T03:39:32;9.60;;;8.80;;
34072;SDS011;20346;52.702;16.886;2023-06-19T03:42:50;10.30;;;9.40;;
34072;SDS011;20346;52.702;16.886;2023-06-19T03:46:24;9.60;;;8.90;;
34072;SDS011;20346;52.702;16.886;2023-06-19T03:49:36;9.70;;;8.80;;
34072;SDS011;20346;52.702;16.886;2023-06-19T03:52:24;10.00;;;9.20;;
34072;SDS011;20346;52.702;16.886;2023-06-19T03:55:38;10.40;;;8.80;;
34072;SDS011;20346;52.702;16.886;2023-06-19T03:58:45;11.40;;;9.70;;
34072;SDS011;20346;52.702;16.886;2023-06-19T04:01:52;13.00;;;10.00;;
34072;SDS011;20346;52.702;16.886;2023-06-19T04:05:31;13.30;;;9.50;;
34072;SDS011;20346;52.702;16.886;2023-06-19T04:09:18;10.50;;;9.40;;
34072;SDS011;20346;52.702;16.886;2023-06-19T04:12:06;10.00;;;9.00;;
34072;SDS011;20346;52.702;16.886;2023-06-19T04:14:53;10.70;;;9.70;;
34072;SDS011;20346;52.702;16.886;2023-06-19T04:17:40;15.60;;;9.60;;
34072;SDS011;20346;52.702;16.886;2023-06-19T04:20:28;10.30;;;9.50;;
34072;SDS011;20346;52.702;16.886;2023-06-19T04:23:15;10.50;;;9.40;;
34072;SDS011;20346;52.702;16.886;2023-06-19T04:26:02;10.80;;;9.50;;
34072;SDS011;20346;52.702;16.886;2023-06-19T04:29:11;10.70;;;9.80;;
34072;SDS011;20346;52.702;16.886;2023-06-19T04:32:44;13.00;;;11.70;;
34072;SDS011;20346;52.702;16.886;2023-06-19T04:35:31;13.30;;;11.90;;
34072;SDS011;20346;52.702;16.886;2023-06-19T04:38:17;21.00;;;12.20;;
34072;SDS011;20346;52.702;16.886;2023-06-19T04:41:03;14.90;;;12.80;;
34072;SDS011;20346;52.702;16.886;2023-06-19T04:43:49;14.30;;;12.90;;
34072;SDS011;20346;52.702;16.886;2023-06-19T04:46:37;15.90;;;12.70;;
34072;SDS011;20346;52.702;16.886;2023-06-19T04:49:25;13.20;;;11.80;;
34072;SDS011;20346;52.702;16.886;2023-06-19T04:52:12;13.40;;;12.20;;
34072;SDS011;20346;52.702;16.886;2023-06-19T04:54:58;14.70;;;13.40;;
34072;SDS011;20346;52.702;16.886;2023-06-19T04:57:45;13.30;;;11.90;;
34072;SDS011;20346;52.702;16.886;2023-06-19T05:00:31;14.10;;;12.60;;
34072;SDS011;20346;52.702;16.886;2023-06-19T05:03:18;16.50;;;12.70;;
34072;SDS011;20346;52.702;16.886;2023-06-19T05:06:08;15.20;;;13.50;;
34072;SDS011;20346;52.702;16.886;2023-06-19T05:08:56;13.90;;;12.20;;
34072;SDS011;20346;52.702;16.886;2023-06-19T05:11:44;15.70;;;13.20;;
34072;SDS011;20346;52.702;16.886;2023-06-19T05:14:32;13.40;;;12.20;;
34072;SDS011;20346;52.702;16.886;2023-06-19T05:17:19;14.10;;;12.80;;
34072;SDS011;20346;52.702;16.886;2023-06-19T05:20:10;15.40;;;12.70;;
34072;SDS011;20346;52.702;16.886;2023-06-19T05:22:58;13.90;;;12.60;;
34072;SDS011;20346;52.702;16.886;2023-06-19T05:25:44;16.30;;;13.10;;
34072;SDS011;20346;52.702;16.886;2023-06-19T05:28:31;15.80;;;12.80;;
34072;SDS011;20346;52.702;16.886;2023-06-19T05:31:18;13.10;;;12.00;;
34072;SDS011;20346;52.702;16.886;2023-06-19T05:34:05;14.20;;;12.00;;
34072;SDS011;20346;52.702;16.886;2023-06-19T05:36:52;14.90;;;12.30;;
34072;SDS011;20346;52.702;16.886;2023-06-19T05:39:49;18.40;;;12.90;;
34072;SDS011;20346;52.702;16.886;2023-06-19T05:42:40;13.20;;;11.90;;
34072;SDS011;20346;52.702;16.886;2023-06-19T05:45:29;12.80;;;11.50;;
34072;SDS011;20346;52.702;16.886;2023-06-19T05:48:21;12.80;;;10.80;;
34072;SDS011;20346;52.702;16.886;2023-06-19T05:51:09;12.60;;;11.40;;
34072;SDS011;20346;52.702;16.886;2023-06-19T05:53:58;11.70;;;10.50;;
34072;SDS011;20346;52.702;16.886;2023-06-19T05:56:49;12.30;;;11.20;;
34072;SDS011;20346;52.702;16.886;2023-06-19T05:59:38;11.40;;;10.40;;
34072;SDS011;20346;52.702;16.886;2023-06-19T06:02:34;11.60;;;10.70;;
34072;SDS011;20346;52.702;16.886;2023-06-19T06:05:24;11.40;;;10.10;;
34072;SDS011;20346;52.702;16.886;2023-06-19T06:08:11;10.20;;;9.40;;
34072;SDS011;20346;52.702;16.886;2023-06-19T06:11:18;11.20;;;9.60;;
34072;SDS011;20346;52.702;16.886;2023-06-19T06:14:05;11.70;;;9.00;;
34072;SDS011;20346;52.702;16.886;2023-06-19T06:16:54;10.10;;;8.80;;
34072;SDS011;20346;52.702;16.886;2023-06-19T06:19:54;8.70;;;8.00;;
34072;SDS011;20346;52.702;16.886;2023-06-19T06:22:46;8.30;;;7.70;;
34072;SDS011;20346;52.702;16.886;2023-06-19T06:25:37;9.00;;;8.20;;
34072;SDS011;20346;52.702;16.886;2023-06-19T06:28:25;7.10;;;6.40;;
34072;SDS011;20346;52.702;16.886;2023-06-19T06:31:13;7.90;;;7.20;;
34072;SDS011;20346;52.702;16.886;2023-06-19T06:34:01;6.90;;;6.30;;
34072;SDS011;20346;52.702;16.886;2023-06-19T06:36:53;7.50;;;6.50;;
34072;SDS011;20346;52.702;16.886;2023-06-19T06:39:48;7.40;;;6.50;;
34072;SDS011;20346;52.702;16.886;2023-06-19T06:42:38;6.80;;;6.30;;
34072;SDS011;20346;52.702;16.886;2023-06-19T06:45:27;7.00;;;6.40;;
34072;SDS011;20346;52.702;16.886;2023-06-19T06:48:16;6.80;;;6.20;;
34072;SDS011;20346;52.702;16.886;2023-06-19T06:51:21;7.70;;;6.20;;
34072;SDS011;20346;52.702;16.886;2023-06-19T06:54:18;6.30;;;5.90;;
34072;SDS011;20346;52.702;16.886;2023-06-19T06:57:05;5.80;;;5.30;;
34072;SDS011;20346;52.702;16.886;2023-06-19T06:59:54;6.00;;;5.60;;
34072;SDS011;20346;52.702;16.886;2023-06-19T07:02:42;5.50;;;5.10;;
34072;SDS011;20346;52.702;16.886;2023-06-19T07:05:33;5.80;;;5.30;;
34072;SDS011;20346;52.702;16.886;2023-06-19T07:08:21;5.10;;;4.10;;
34072;SDS011;20346;52.702;16.886;2023-06-19T07:11:08;6.90;;;4.50;;
34072;SDS011;20346;52.702;16.886;2023-06-19T07:14:00;5.60;;;4.60;;
34072;SDS011;20346;52.702;16.886;2023-06-19T07:16:48;4.70;;;4.30;;
34072;SDS011;20346;52.702;16.886;2023-06-19T07:19:35;5.50;;;4.90;;
34072;SDS011;20346;52.702;16.886;2023-06-19T07:22:23;7.30;;;4.70;;
34072;SDS011;20346;52.702;16.886;2023-06-19T07:25:11;5.50;;;4.60;;
34072;SDS011;20346;52.702;16.886;2023-06-19T07:28:01;4.40;;;4.00;;
34072;SDS011;20346;52.702;16.886;2023-06-19T07:30:49;7.70;;;5.10;;
34072;SDS011;20346;52.702;16.886;2023-06-19T07:33:38;4.00;;;3.70;;
34072;SDS011;20346;52.702;16.886;2023-06-19T07:36:25;4.10;;;3.80;;
34072;SDS011;20346;52.702;16.886;2023-06-19T07:39:12;4.00;;;3.70;;
34072;SDS011;20346;52.702;16.886;2023-06-19T07:42:17;6.20;;;4.50;;
34072;SDS011;20346;52.702;16.886;2023-06-19T07:45:06;4.70;;;4.30;;
34072;SDS011;20346;52.702;16.886;2023-06-19T07:47:55;6.90;;;4.40;;
34072;SDS011;20346;52.702;16.886;2023-06-19T07:50:42;5.10;;;4.60;;
34072;SDS011;20346;52.702;16.886;2023-06-19T07:53:29;5.20;;;4.70;;
34072;SDS011;20346;52.702;16.886;2023-06-19T07:56:16;4.30;;;3.90;;
34072;SDS011;20346;52.702;16.886;2023-06-19T07:59:02;4.30;;;3.90;;
34072;SDS011;20346;52.702;16.886;2023-06-19T08:01:49;6.00;;;4.60;;
34072;SDS011;20346;52.702;16.886;2023-06-19T08:04:37;4.60;;;4.30;;
34072;SDS011;20346;52.702;16.886;2023-06-19T08:07:23;4.60;;;4.30;;
34072;SDS011;20346;52.702;16.886;2023-06-19T08:10:10;5.60;;;5.00;;
34072;SDS011;20346;52.702;16.886;2023-06-19T08:12:57;5.20;;;4.70;;
34072;SDS011;20346;52.702;16.886;2023-06-19T08:15:44;5.20;;;4.80;;
34072;SDS011;20346;52.702;16.886;2023-06-19T08:18:30;5.30;;;5.00;;
34072;SDS011;20346;52.702;16.886;2023-06-19T08:21:17;6.40;;;5.60;;
34072;SDS011;20346;52.702;16.886;2023-06-19T08:24:04;5.30;;;5.10;;
34072;SDS011;20346;52.702;16.886;2023-06-19T08:26:51;6.00;;;5.60;;
34072;SDS011;20346;52.702;16.886;2023-06-19T08:29:38;5.10;;;4.80;;
34072;SDS011;20346;52.702;16.886;2023-06-19T08:32:24;6.60;;;6.30;;
34072;SDS011;20346;52.702;16.886;2023-06-19T08:35:11;6.70;;;6.20;;
34072;SDS011;20346;52.702;16.886;2023-06-19T08:37:57;6.50;;;6.10;;
34072;SDS011;20346;52.702;16.886;2023-06-19T08:40:43;7.10;;;6.60;;
34072;SDS011;20346;52.702;16.886;2023-06-19T08:43:31;7.30;;;6.90;;
34072;SDS011;20346;52.702;16.886;2023-06-19T08:46:18;7.40;;;6.70;;
34072;SDS011;20346;52.702;16.886;2023-06-19T08:49:04;7.30;;;6.90;;
34072;SDS011;20346;52.702;16.886;2023-06-19T08:58:25;7.10;;;6.50;;
34072;SDS011;20346;52.702;16.886;2023-06-19T09:01:13;7.40;;;6.90;;
34072;SDS011;20346;52.702;16.886;2023-06-19T09:04:12;6.40;;;5.90;;
34072;SDS011;20346;52.702;16.886;2023-06-19T09:07:00;7.20;;;6.00;;
34072;SDS011;20346;52.702;16.886;2023-06-19T09:09:48;4.80;;;4.40;;
34072;SDS011;20346;52.702;16.886;2023-06-19T09:12:35;5.30;;;5.00;;
34072;SDS011;20346;52.702;16.886;2023-06-19T09:15:22;4.70;;;4.30;;
34072;SDS011;20346;52.702;16.886;2023-06-19T09:18:10;4.90;;;4.50;;
34072;SDS011;20346;52.702;16.886;2023-06-19T09:20:57;6.90;;;4.20;;
34072;SDS011;20346;52.702;16.886;2023-06-19T09:23:46;5.20;;;4.50;;
34072;SDS011;20346;52.702;16.886;2023-06-19T09:26:33;4.20;;;3.90;;
34072;SDS011;20346;52.702;16.886;2023-06-19T09:29:20;4.20;;;3.90;;
34072;SDS011;20346;52.702;16.886;2023-06-19T09:35:09;4.70;;;4.30;;
34072;SDS011;20346;52.702;16.886;2023-06-19T09:37:55;5.20;;;4.80;;
34072;SDS011;20346;52.702;16.886;2023-06-19T09:40:47;6.00;;;4.40;;
34072;SDS011;20346;52.702;16.886;2023-06-19T09:46:30;6.00;;;4.10;;
34072;SDS011;20346;52.702;16.886;2023-06-19T09:49:19;5.10;;;4.70;;
34072;SDS011;20346;52.702;16.886;2023-06-19T09:52:07;4.80;;;4.30;;
34072;SDS011;20346;52.702;16.886;2023-06-19T09:54:54;4.80;;;4.30;;
34072;SDS011;20346;52.702;16.886;2023-06-19T09:57:43;4.90;;;4.50;;
34072;SDS011;20346;52.702;16.886;2023-06-19T10:00:31;4.90;;;4.50;;
34072;SDS011;20346;52.702;16.886;2023-06-19T10:03:19;4.70;;;4.40;;
34072;SDS011;20346;52.702;16.886;2023-06-19T10:06:05;6.20;;;4.40;;
34072;SDS011;20346;52.702;16.886;2023-06-19T10:08:52;5.00;;;4.60;;
34072;SDS011;20346;52.702;16.886;2023-06-19T10:11:48;5.40;;;5.00;;
34072;SDS011;20346;52.702;16.886;2023-06-19T10:14:44;4.90;;;4.60;;
34072;SDS011;20346;52.702;16.886;2023-06-19T10:17:33;6.50;;;4.40;;
34072;SDS011;20346;52.702;16.886;2023-06-19T10:23:17;5.50;;;4.40;;
34072;SDS011;20346;52.702;16.886;2023-06-19T10:26:06;4.80;;;4.40;;
34072;SDS011;20346;52.702;16.886;2023-06-19T10:28:53;7.10;;;4.60;;
34072;SDS011;20346;52.702;16.886;2023-06-19T10:31:40;4.90;;;4.50;;
34072;SDS011;20346;52.702;16.886;2023-06-19T10:34:34;6.30;;;4.40;;
34072;SDS011;20346;52.702;16.886;2023-06-19T10:37:31;6.00;;;5.00;;
34072;SDS011;20346;52.702;16.886;2023-06-19T10:40:18;5.50;;;5.00;;
34072;SDS011;20346;52.702;16.886;2023-06-19T10:43:05;6.30;;;4.80;;
34072;SDS011;20346;52.702;16.886;2023-06-19T10:48:38;5.00;;;3.90;;
34072;SDS011;20346;52.702;16.886;2023-06-19T10:51:24;4.60;;;4.10;;
34072;SDS011;20346;52.702;16.886;2023-06-19T10:54:10;4.40;;;4.10;;
34072;SDS011;20346;52.702;16.886;2023-06-19T10:59:44;4.90;;;4.50;;
34072;SDS011;20346;52.702;16.886;2023-06-19T11:02:30;7.20;;;4.00;;
34072;SDS011;20346;52.702;16.886;2023-06-19T11:05:21;4.90;;;4.40;;
34072;SDS011;20346;52.702;16.886;2023-06-19T11:08:07;6.70;;;4.50;;
34072;SDS011;20346;52.702;16.886;2023-06-19T11:10:55;4.80;;;4.50;;
34072;SDS011;20346;52.702;16.886;2023-06-19T11:13:42;6.70;;;4.20;;
34072;SDS011;20346;52.702;16.886;2023-06-19T11:16:29;5.70;;;4.80;;
34072;SDS011;20346;52.702;16.886;2023-06-19T11:19:16;4.60;;;4.00;;
34072;SDS011;20346;52.702;16.886;2023-06-19T11:22:05;5.40;;;4.70;;
34072;SDS011;20346;52.702;16.886;2023-06-19T11:24:53;4.50;;;4.10;;
34072;SDS011;20346;52.702;16.886;2023-06-19T11:27:39;4.80;;;4.40;;
34072;SDS011;20346;52.702;16.886;2023-06-19T11:30:32;4.40;;;4.00;;
34072;SDS011;20346;52.702;16.886;2023-06-19T11:33:20;5.70;;;4.30;;
34072;SDS011;20346;52.702;16.886;2023-06-19T11:36:08;6.10;;;4.40;;
34072;SDS011;20346;52.702;16.886;2023-06-19T11:38:55;4.60;;;4.10;;
34072;SDS011;20346;52.702;16.886;2023-06-19T11:41:45;5.20;;;4.80;;
34072;SDS011;20346;52.702;16.886;2023-06-19T11:44:32;5.10;;;4.70;;
34072;SDS011;20346;52.702;16.886;2023-06-19T11:47:18;4.50;;;4.10;;
34072;SDS011;20346;52.702;16.886;2023-06-19T11:50:07;4.90;;;4.50;;
34072;SDS011;20346;52.702;16.886;2023-06-19T11:52:54;4.50;;;4.10;;
34072;SDS011;20346;52.702;16.886;2023-06-19T11:55:43;4.90;;;4.50;;
34072;SDS011;20346;52.702;16.886;2023-06-19T11:58:29;4.80;;;4.50;;
34072;SDS011;20346;52.702;16.886;2023-06-19T12:01:16;5.10;;;4.60;;
34072;SDS011;20346;52.702;16.886;2023-06-19T12:04:02;4.70;;;4.30;;
34072;SDS011;20346;52.702;16.886;2023-06-19T12:06:49;4.70;;;4.40;;
34072;SDS011;20346;52.702;16.886;2023-06-19T12:09:35;10.40;;;5.00;;
34072;SDS011;20346;52.702;16.886;2023-06-19T12:12:23;8.40;;;4.30;;
34072;SDS011;20346;52.702;16.886;2023-06-19T12:15:11;11.20;;;4.60;;
34072;SDS011;20346;52.702;16.886;2023-06-19T12:20:44;5.80;;;4.60;;
34072;SDS011;20346;52.702;16.886;2023-06-19T12:26:18;5.10;;;4.70;;
34072;SDS011;20346;52.702;16.886;2023-06-19T12:29:06;8.90;;;4.90;;
34072;SDS011;20346;52.702;16.886;2023-06-19T12:31:59;9.90;;;4.40;;
34072;SDS011;20346;52.702;16.886;2023-06-19T12:34:46;4.70;;;4.30;;
34072;SDS011;20346;52.702;16.886;2023-06-19T12:37:36;5.10;;;4.70;;
34072;SDS011;20346;52.702;16.886;2023-06-19T12:40:23;6.90;;;4.60;;
34072;SDS011;20346;52.702;16.886;2023-06-19T12:43:10;5.70;;;4.70;;
34072;SDS011;20346;52.702;16.886;2023-06-19T12:46:56;6.20;;;4.30;;
34072;SDS011;20346;52.702;16.886;2023-06-19T12:50:42;4.70;;;4.30;;
34072;SDS011;20346;52.702;16.886;2023-06-19T12:54:11;5.30;;;4.20;;
34072;SDS011;20346;52.702;16.886;2023-06-19T12:56:55;4.30;;;4.00;;
34072;SDS011;20346;52.702;16.886;2023-06-19T12:59:41;7.10;;;4.30;;
34072;SDS011;20346;52.702;16.886;2023-06-19T13:02:28;4.50;;;4.10;;
34072;SDS011;20346;52.702;16.886;2023-06-19T13:06:15;6.00;;;4.20;;
34072;SDS011;20346;52.702;16.886;2023-06-19T13:10:02;9.00;;;4.10;;
34072;SDS011;20346;52.702;16.886;2023-06-19T13:13:49;4.70;;;4.00;;
34072;SDS011;20346;52.702;16.886;2023-06-19T13:17:12;4.80;;;4.20;;
34072;SDS011;20346;52.702;16.886;2023-06-19T13:20:42;4.30;;;4.00;;
34072;SDS011;20346;52.702;16.886;2023-06-19T13:23:46;4.20;;;3.90;;
34072;SDS011;20346;52.702;16.886;2023-06-19T13:27:13;6.10;;;4.20;;
34072;SDS011;20346;52.702;16.886;2023-06-19T13:30:39;6.90;;;4.00;;
34072;SDS011;20346;52.702;16.886;2023-06-19T13:33:52;4.00;;;3.70;;
34072;SDS011;20346;52.702;16.886;2023-06-19T13:37:38;4.20;;;3.80;;
34072;SDS011;20346;52.702;16.886;2023-06-19T13:41:24;4.20;;;3.90;;
34072;SDS011;20346;52.702;16.886;2023-06-19T13:45:11;5.30;;;3.90;;
34072;SDS011;20346;52.702;16.886;2023-06-19T13:49:06;4.70;;;3.80;;
34072;SDS011;20346;52.702;16.886;2023-06-19T13:52:52;5.20;;;4.30;;
34072;SDS011;20346;52.702;16.886;2023-06-19T13:55:59;3.90;;;3.40;;
34072;SDS011;20346;52.702;16.886;2023-06-19T13:59:25;4.20;;;3.80;;
34072;SDS011;20346;52.702;16.886;2023-06-19T14:03:12;3.90;;;3.60;;
34072;SDS011;20346;52.702;16.886;2023-06-19T14:06:59;7.20;;;3.50;;
34072;SDS011;20346;52.702;16.886;2023-06-19T14:10:09;4.50;;;3.80;;
34072;SDS011;20346;52.702;16.886;2023-06-19T14:12:55;4.30;;;4.00;;
34072;SDS011;20346;52.702;16.886;2023-06-19T14:15:41;4.10;;;3.80;;
34072;SDS011;20346;52.702;16.886;2023-06-19T14:18:28;4.30;;;3.90;;
34072;SDS011;20346;52.702;16.886;2023-06-19T14:24:02;5.30;;;4.20;;
34072;SDS011;20346;52.702;16.886;2023-06-19T14:27:02;4.70;;;3.90;;
34072;SDS011;20346;52.702;16.886;2023-06-19T14:30:00;5.30;;;4.20;;
34072;SDS011;20346;52.702;16.886;2023-06-19T14:32:47;5.50;;;4.20;;
34072;SDS011;20346;52.702;16.886;2023-06-19T14:35:33;8.30;;;5.20;;
34072;SDS011;20346;52.702;16.886;2023-06-19T14:38:19;10.60;;;5.90;;
34072;SDS011;20346;52.702;16.886;2023-06-19T14:41:05;5.70;;;5.20;;
34072;SDS011;20346;52.702;16.886;2023-06-19T14:44:04;5.30;;;4.90;;
34072;SDS011;20346;52.702;16.886;2023-06-19T14:47:07;5.20;;;4.80;;
34072;SDS011;20346;52.702;16.886;2023-06-19T14:52:39;7.20;;;5.10;;
34072;SDS011;20346;52.702;16.886;2023-06-19T14:55:25;5.20;;;4.50;;
34072;SDS011;20346;52.702;16.886;2023-06-19T14:58:14;5.50;;;5.10;;
34072;SDS011;20346;52.702;16.886;2023-06-19T15:01:01;5.20;;;4.80;;
34072;SDS011;20346;52.702;16.886;2023-06-19T15:03:47;5.50;;;4.90;;
34072;SDS011;20346;52.702;16.886;2023-06-19T15:06:33;5.30;;;4.20;;
34072;SDS011;20346;52.702;16.886;2023-06-19T15:09:19;5.70;;;5.10;;
34072;SDS011;20346;52.702;16.886;2023-06-19T15:12:06;7.80;;;4.50;;
34072;SDS011;20346;52.702;16.886;2023-06-19T15:14:52;4.90;;;4.50;;
34072;SDS011;20346;52.702;16.886;2023-06-19T15:17:38;5.30;;;4.90;;
34072;SDS011;20346;52.702;16.886;2023-06-19T15:20:24;4.80;;;4.50;;
34072;SDS011;20346;52.702;16.886;2023-06-19T15:23:10;5.40;;;5.00;;
34072;SDS011;20346;52.702;16.886;2023-06-19T15:25:57;4.60;;;4.20;;
34072;SDS011;20346;52.702;16.886;2023-06-19T15:28:43;5.00;;;4.60;;
34072;SDS011;20346;52.702;16.886;2023-06-19T15:31:29;7.60;;;4.60;;
34072;SDS011;20346;52.702;16.886;2023-06-19T15:34:16;7.40;;;4.70;;
34072;SDS011;20346;52.702;16.886;2023-06-19T15:37:02;9.20;;;4.80;;
34072;SDS011;20346;52.702;16.886;2023-06-19T15:39:50;10.10;;;6.30;;
34072;SDS011;20346;52.702;16.886;2023-06-19T15:42:37;5.90;;;5.00;;
34072;SDS011;20346;52.702;16.886;2023-06-19T15:45:23;6.40;;;5.20;;
34072;SDS011;20346;52.702;16.886;2023-06-19T15:48:10;6.30;;;5.70;;
34072;SDS011;20346;52.702;16.886;2023-06-19T15:50:56;8.60;;;5.90;;
34072;SDS011;20346;52.702;16.886;2023-06-19T15:53:42;5.80;;;5.40;;
34072;SDS011;20346;52.702;16.886;2023-06-19T15:56:28;5.90;;;5.40;;
34072;SDS011;20346;52.702;16.886;2023-06-19T15:59:15;6.10;;;5.60;;
34072;SDS011;20346;52.702;16.886;2023-06-19T16:02:01;6.50;;;5.70;;
34072;SDS011;20346;52.702;16.886;2023-06-19T16:07:33;6.50;;;5.80;;
34072;SDS011;20346;52.702;16.886;2023-06-19T16:10:20;5.80;;;5.20;;
34072;SDS011;20346;52.702;16.886;2023-06-19T16:13:06;6.60;;;5.30;;
34072;SDS011;20346;52.702;16.886;2023-06-19T16:15:52;5.60;;;5.10;;
34072;SDS011;20346;52.702;16.886;2023-06-19T16:18:38;6.80;;;4.90;;
34072;SDS011;20346;52.702;16.886;2023-06-19T16:21:25;11.00;;;4.40;;
34072;SDS011;20346;52.702;16.886;2023-06-19T16:24:13;4.30;;;4.00;;
34072;SDS011;20346;52.702;16.886;2023-06-19T16:26:59;5.00;;;3.80;;
34072;SDS011;20346;52.702;16.886;2023-06-19T16:29:46;5.00;;;4.60;;
34072;SDS011;20346;52.702;16.886;2023-06-19T16:32:32;4.70;;;4.30;;
34072;SDS011;20346;52.702;16.886;2023-06-19T16:35:18;4.50;;;4.20;;
34072;SDS011;20346;52.702;16.886;2023-06-19T16:38:07;9.40;;;4.40;;
34072;SDS011;20346;52.702;16.886;2023-06-19T16:40:53;6.10;;;4.40;;
34072;SDS011;20346;52.702;16.886;2023-06-19T16:43:40;7.20;;;5.50;;
34072;SDS011;20346;52.702;16.886;2023-06-19T16:46:26;13.00;;;6.70;;
34072;SDS011;20346;52.702;16.886;2023-06-19T16:49:12;7.60;;;6.50;;
34072;SDS011;20346;52.702;16.886;2023-06-19T16:51:58;8.50;;;7.40;;
34072;SDS011;20346;52.702;16.886;2023-06-19T16:54:44;12.70;;;8.10;;
34072;SDS011;20346;52.702;16.886;2023-06-19T16:57:30;18.20;;;9.60;;
34072;SDS011;20346;52.702;16.886;2023-06-19T17:00:18;14.40;;;9.40;;
34072;SDS011;20346;52.702;16.886;2023-06-19T17:03:05;17.20;;;8.90;;
34072;SDS011;20346;52.702;16.886;2023-06-19T17:05:52;15.60;;;8.70;;
34072;SDS011;20346;52.702;16.886;2023-06-19T17:08:38;12.40;;;7.20;;
34072;SDS011;20346;52.702;16.886;2023-06-19T17:11:24;14.30;;;8.10;;
34072;SDS011;20346;52.702;16.886;2023-06-19T17:14:12;9.20;;;7.60;;
34072;SDS011;20346;52.702;16.886;2023-06-19T17:16:58;10.60;;;7.20;;
34072;SDS011;20346;52.702;16.886;2023-06-19T17:19:44;13.90;;;7.30;;
34072;SDS011;20346;52.702;16.886;2023-06-19T17:22:31;7.40;;;6.70;;
34072;SDS011;20346;52.702;16.886;2023-06-19T17:25:17;11.50;;;7.20;;
34072;SDS011;20346;52.702;16.886;2023-06-19T17:28:03;10.60;;;8.30;;
34072;SDS011;20346;52.702;16.886;2023-06-19T17:30:49;12.90;;;8.60;;
34072;SDS011;20346;52.702;16.886;2023-06-19T17:33:35;9.30;;;7.70;;
34072;SDS011;20346;52.702;16.886;2023-06-19T17:36:22;11.60;;;8.50;;
34072;SDS011;20346;52.702;16.886;2023-06-19T17:39:08;9.80;;;8.80;;
34072;SDS011;20346;52.702;16.886;2023-06-19T17:41:54;11.10;;;7.00;;
34072;SDS011;20346;52.702;16.886;2023-06-19T17:44:40;11.20;;;7.20;;
34072;SDS011;20346;52.702;16.886;2023-06-19T17:47:26;8.80;;;7.90;;
34072;SDS011;20346;52.702;16.886;2023-06-19T17:50:12;14.00;;;8.70;;
34072;SDS011;20346;52.702;16.886;2023-06-19T17:52:58;9.70;;;8.80;;
34072;SDS011;20346;52.702;16.886;2023-06-19T17:55:44;9.70;;;8.80;;
34072;SDS011;20346;52.702;16.886;2023-06-19T17:58:31;9.50;;;8.50;;
34072;SDS011;20346;52.702;16.886;2023-06-19T18:01:19;8.40;;;7.60;;